Gurli — SLEG — position and weather

sailwx.info

Track history (hours):
 
Tides and Currents Weather Stations Pressure Air Temp Water Temp Dewpoint Dewpoint Depression Visibility Wind Speed Wind Dir Waves Ship Positions

Gurli

Last reported at 2017-Dec-11 17:00 UTC. Time now 2017-Dec-14 17:06 UTC.
Position N 59°21' E 018°09'.

Length 21 m.

Type: Passenger vessel. MMSI: 265687640.

Date/timePositionNaut miles runAvg speedWind from/ knotsBaromVisibWave heightAir tempDewpointWater temp
2017-Dec-11 17:00N 59°21' E 018°09'2 3.5
2017-Dec-11 16:24N 59°19' E 018°06'1 1.2
2017-Dec-11 16:00N 59°19' E 018°07'2 3.7
2017-Dec-11 15:30N 59°20' E 018°09'1 1.4
2017-Dec-11 15:00N 59°19' E 018°10'2 3.9
2017-Dec-11 14:30N 59°19' E 018°06'0 0.4
2017-Dec-11 14:00N 59°19' E 018°06'2 3.8
2017-Dec-11 13:30N 59°20' E 018°09'0 0.8
2017-Dec-11 13:00N 59°20' E 018°09'2 4.0
2017-Dec-11 12:31N 59°19' E 018°06'0 0.7
2017-Dec-11 12:00N 59°19' E 018°06'2 3.9
2017-Dec-11 11:29N 59°19' E 018°10'1 2.2
2017-Dec-11 11:00N 59°20' E 018°09'2 4.1
2017-Dec-11 10:30N 59°19' E 018°06'0 0.5
2017-Dec-11 10:00N 59°19' E 018°07'2 3.9
2017-Dec-11 09:30N 59°20' E 018°09'1 2.5
2017-Dec-11 08:59N 59°19' E 018°10'3 5.5
2017-Dec-11 08:30N 59°20' E 018°05'2 3.9
2017-Dec-11 08:00N 59°19' E 018°08'2 3.3
2017-Dec-11 07:30N 59°21' E 018°08'2 3.3
2017-Dec-11 07:00N 59°19' E 018°08'2 3.6
2017-Dec-11 06:30N 59°20' E 018°05'2 4.3
2017-Dec-11 06:00N 59°19' E 018°09'2 4.5
2017-Dec-11 05:28N 59°20' E 018°05'0 0.2
2017-Dec-11 04:23N 59°20' E 018°05'0 0.0
2017-Dec-11 03:53N 59°20' E 018°05'0 0.0
2017-Dec-11 03:23N 59°20' E 018°05'0 0.0
2017-Dec-11 02:47N 59°20' E 018°05'0 0.0
2017-Dec-11 02:29N 59°20' E 018°05'0 0.0
2017-Dec-11 01:59N 59°20' E 018°05'0 0.0
2017-Dec-11 01:29N 59°20' E 018°05'0 0.0
2017-Dec-11 00:59N 59°20' E 018°05'0 0.0
2017-Dec-11 00:29N 59°20' E 018°05'0 0.0
2017-Dec-10 23:53N 59°20' E 018°05'0 0.0
2017-Dec-10 23:29N 59°20' E 018°05'0 0.0
2017-Dec-10 22:59N 59°20' E 018°05'0 0.0
2017-Dec-10 22:29N 59°20' E 018°05'0 0.0
2017-Dec-10 21:59N 59°20' E 018°05'0 0.0
2017-Dec-10 21:29N 59°20' E 018°05'0 0.0
2017-Dec-10 20:59N 59°20' E 018°05'0 0.0
2017-Dec-10 20:29N 59°20' E 018°05'0 0.0
2017-Dec-10 19:59N 59°20' E 018°05'0 0.0
2017-Dec-10 19:30N 59°20' E 018°05'2 3.1
2017-Dec-10 19:00N 59°19' E 018°07'2 3.4
2017-Dec-10 18:30N 59°20' E 018°05'2 3.2
2017-Dec-10 17:58N 59°19' E 018°07'2 3.6
2017-Dec-10 17:28N 59°21' E 018°09'2 3.5
2017-Dec-10 17:01N 59°19' E 018°08'2 3.0
2017-Dec-10 16:24N 59°20' E 018°05'2 4.3
2017-Dec-10 16:00N 59°19' E 018°07'2 3.6
2017-Dec-10 15:30N 59°21' E 018°09'2 3.7
2017-Dec-10 15:00N 59°19' E 018°07'2 3.3
2017-Dec-10 14:28N 59°20' E 018°05'2 4.0
2017-Dec-10 14:00N 59°19' E 018°08'1 3.0
2017-Dec-10 13:30N 59°20' E 018°09'2 3.4
2017-Dec-10 13:00N 59°19' E 018°07'1 2.8
2017-Dec-10 12:30N 59°20' E 018°05'0 0.2
2017-Dec-10 12:00N 59°20' E 018°05'2 3.1
2017-Dec-10 11:30N 59°19' E 018°08'2 3.3
2017-Dec-10 10:58N 59°21' E 018°09'2 3.5
2017-Dec-10 10:30N 59°19' E 018°08'2 3.8
2017-Dec-10 09:58N 59°20' E 018°05'2 3.7
2017-Dec-10 09:30N 59°19' E 018°08'2 3.3
2017-Dec-10 08:58N 59°21' E 018°09'2 3.6
2017-Dec-10 08:30N 59°19' E 018°08'2 2.8
2017-Dec-10 07:54N 59°20' E 018°05'0 0.0
2017-Dec-10 07:24N 59°20' E 018°05'0 0.0
2017-Dec-10 05:48N 59°20' E 018°05'0 0.0
2017-Dec-10 04:36N 59°20' E 018°05'0 0.0
2017-Dec-10 04:30N 59°20' E 018°05'0 0.0
2017-Dec-10 03:48N 59°20' E 018°05'0 0.0
2017-Dec-10 03:30N 59°20' E 018°05'0 0.0
2017-Dec-10 02:57N 59°20' E 018°05'0 0.0
2017-Dec-10 02:30N 59°20' E 018°05'0 0.0
2017-Dec-10 02:00N 59°20' E 018°05'0 0.0
2017-Dec-10 01:27N 59°20' E 018°05'0 0.0
2017-Dec-10 01:00N 59°20' E 018°05'0 0.0
2017-Dec-10 00:30N 59°20' E 018°05'0 0.0
2017-Dec-09 23:57N 59°20' E 018°05'0 0.0
2017-Dec-09 23:30N 59°20' E 018°05'0 0.0
2017-Dec-09 23:00N 59°20' E 018°05'0 0.0
2017-Dec-09 22:30N 59°20' E 018°05'0 0.0
2017-Dec-09 21:57N 59°20' E 018°05'0 0.0
2017-Dec-09 21:30N 59°20' E 018°05'0 0.0
2017-Dec-09 21:00N 59°20' E 018°05'0 0.0
2017-Dec-09 20:30N 59°20' E 018°05'0 0.0
2017-Dec-09 20:00N 59°20' E 018°05'0 0.0
2017-Dec-09 19:30N 59°20' E 018°05'0 0.0
2017-Dec-09 17:41N 59°20' E 018°05'0 1.5
2017-Dec-09 17:29N 59°20' E 018°05'2 4.1
2017-Dec-09 17:00N 59°19' E 018°09'1 2.7
2017-Dec-09 16:29N 59°21' E 018°09'2 3.2
2017-Dec-09 16:01N 59°19' E 018°08'2 4.0
2017-Dec-09 15:30N 59°20' E 018°05'2 4.0
2017-Dec-09 15:00N 59°19' E 018°08'2 4.0
2017-Dec-09 14:30N 59°20' E 018°05'2 3.4
2017-Dec-09 14:00N 59°19' E 018°08'2 3.4
2017-Dec-09 13:30N 59°21' E 018°09'2 3.6
2017-Dec-09 13:00N 59°19' E 018°07'2 3.3
2017-Dec-09 12:29N 59°20' E 018°05'0 0.0
2017-Dec-09 11:59N 59°20' E 018°05'2 3.7
2017-Dec-09 11:30N 59°19' E 018°07'1 2.5
2017-Dec-09 11:00N 59°20' E 018°05'1 2.2
2017-Dec-09 10:30N 59°19' E 018°07'2 3.3
2017-Dec-09 09:58N 59°21' E 018°09'2 3.4
2017-Dec-09 09:30N 59°19' E 018°08'2 3.7
2017-Dec-09 09:00N 59°20' E 018°05'0 0.0
2017-Dec-09 08:30N 59°20' E 018°05'0 0.0
2017-Dec-09 07:48N 59°20' E 018°05'0 0.0
2017-Dec-09 07:15N 59°20' E 018°05'0 0.0
2017-Dec-09 04:48N 59°20' E 018°05'0 0.0
2017-Dec-09 04:30N 59°20' E 018°05'0 0.0
2017-Dec-09 04:00N 59°20' E 018°05'0 0.0
2017-Dec-09 03:30N 59°20' E 018°05'0 0.0
2017-Dec-09 03:00N 59°20' E 018°05'0 0.0
2017-Dec-09 02:30N 59°20' E 018°05'0 0.0
2017-Dec-09 02:00N 59°20' E 018°05'0 0.0
2017-Dec-09 01:30N 59°20' E 018°05'0 0.0
2017-Dec-09 01:00N 59°20' E 018°05'0 0.0
2017-Dec-09 00:30N 59°20' E 018°05'0 0.0
2017-Dec-09 00:00N 59°20' E 018°05'0 0.0
2017-Dec-08 23:30N 59°20' E 018°05'0 0.0
2017-Dec-08 23:00N 59°20' E 018°05'0 0.0
2017-Dec-08 22:30N 59°20' E 018°05'0 0.0
2017-Dec-08 22:00N 59°20' E 018°05'0 0.0
2017-Dec-08 21:30N 59°20' E 018°05'0 0.0
2017-Dec-08 21:00N 59°20' E 018°05'0 0.0
2017-Dec-08 20:30N 59°20' E 018°05'1 2.5
2017-Dec-08 20:00N 59°19' E 018°07'0 0.0
2017-Dec-08 19:30N 59°19' E 018°07'1 2.9
2017-Dec-08 19:00N 59°20' E 018°05'3 5.0
2017-Dec-08 18:29N 59°19' E 018°09'2 4.1
2017-Dec-08 18:00N 59°19' E 018°06'1 2.0
2017-Dec-08 17:29N 59°19' E 018°07'2 3.6
2017-Dec-08 17:00N 59°21' E 018°09'1 2.9
2017-Dec-08 16:31N 59°19' E 018°09'2 4.1
2017-Dec-08 16:01N 59°20' E 018°05'1 1.7
2017-Dec-08 15:30N 59°19' E 018°06'2 3.6
2017-Dec-08 15:00N 59°20' E 018°09'1 2.0
2017-Dec-08 14:28N 59°19' E 018°10'2 4.6
2017-Dec-08 14:00N 59°20' E 018°05'0 0.7
2017-Dec-08 13:29N 59°20' E 018°05'  
2017-Dec-04 10:30N 59°19' E 018°09'1 2.9
2017-Dec-04 10:00N 59°21' E 018°09'2 3.6
2017-Dec-04 09:30N 59°19' E 018°07'2 3.3
2017-Dec-04 08:58N 59°20' E 018°05'2 3.7
2017-Dec-04 08:30N 59°19' E 018°07'2 3.6
2017-Dec-04 08:00N 59°21' E 018°08'2 3.4
2017-Dec-04 07:30N 59°19' E 018°09'2 4.9
2017-Dec-04 07:00N 59°20' E 018°05'3 5.4
2017-Dec-04 06:30N 59°19' E 018°10'2 3.0
2017-Dec-04 06:00N 59°21' E 018°09'2 3.3
2017-Dec-04 05:30N 59°19' E 018°08'2 3.7
2017-Dec-04 05:00N 59°20' E 018°05'0 0.4
2017-Dec-04 04:29N 59°20' E 018°05'0 0.0
2017-Dec-04 03:59N 59°20' E 018°05'0 0.0
2017-Dec-04 03:29N 59°20' E 018°05'0 0.0
2017-Dec-04 02:59N 59°20' E 018°05'0 0.0
2017-Dec-04 02:29N 59°20' E 018°05'0 0.0
2017-Dec-04 01:59N 59°20' E 018°05'0 0.0
2017-Dec-04 01:29N 59°20' E 018°05'0 0.0
2017-Dec-04 00:59N 59°20' E 018°05'0 0.0
2017-Dec-04 00:26N 59°20' E 018°05'0 0.0
2017-Dec-03 23:59N 59°20' E 018°05'0 0.0
2017-Dec-03 23:29N 59°20' E 018°05'0 0.0
2017-Dec-03 22:56N 59°20' E 018°05'0 0.0
2017-Dec-03 22:29N 59°20' E 018°05'0 0.0
2017-Dec-03 21:59N 59°20' E 018°05'0 0.0
2017-Dec-03 21:29N 59°20' E 018°05'0 0.0
2017-Dec-03 20:59N 59°20' E 018°05'0 0.0
2017-Dec-03 20:29N 59°20' E 018°05'0 0.0
2017-Dec-03 19:59N 59°20' E 018°05'0 0.0
2017-Dec-03 19:29N 59°20' E 018°05'0 0.0
2017-Dec-03 18:59N 59°20' E 018°05'0 0.0
2017-Dec-03 18:29N 59°20' E 018°05'0 0.0
2017-Dec-03 17:59N 59°20' E 018°05'0 0.0
2017-Dec-03 17:29N 59°20' E 018°05'1 3.1
2017-Dec-03 17:00N 59°19' E 018°07'2 3.5
2017-Dec-03 16:30N 59°21' E 018°09'2 3.1
2017-Dec-03 16:00N 59°19' E 018°08'2 3.9
2017-Dec-03 15:29N 59°20' E 018°05'2 4.2
2017-Dec-03 15:00N 59°19' E 018°08'2 3.8
2017-Dec-03 14:28N 59°20' E 018°05'2 3.6
2017-Dec-03 14:00N 59°19' E 018°07'2 3.2
2017-Dec-03 13:30N 59°21' E 018°09'2 3.1
2017-Dec-03 13:00N 59°19' E 018°08'2 3.6
2017-Dec-03 12:28N 59°20' E 018°05'0 0.0
2017-Dec-03 11:58N 59°20' E 018°05'2 3.6
2017-Dec-03 11:30N 59°19' E 018°07'1 2.4
2017-Dec-03 11:00N 59°20' E 018°05'1 2.0
2017-Dec-03 10:30N 59°19' E 018°07'2 3.4
2017-Dec-03 09:59N 59°21' E 018°09'2 3.3
2017-Dec-03 09:30N 59°19' E 018°08'2 3.9
2017-Dec-03 09:00N 59°20' E 018°05'0 0.3
2017-Dec-03 08:28N 59°20' E 018°05'0 0.0
2017-Dec-03 07:58N 59°20' E 018°05'0 0.0
2017-Dec-03 07:28N 59°20' E 018°05'0 0.0
2017-Dec-03 06:58N 59°20' E 018°05'0 0.0
2017-Dec-03 06:28N 59°20' E 018°05'0 0.0
2017-Dec-03 05:58N 59°20' E 018°05'0 0.0
2017-Dec-03 05:28N 59°20' E 018°05'0 0.0
2017-Dec-03 04:58N 59°20' E 018°05'0 0.0
2017-Dec-03 04:28N 59°20' E 018°05'0 0.0
2017-Dec-03 03:58N 59°20' E 018°05'0 0.0
2017-Dec-03 03:25N 59°20' E 018°05'0 0.0
2017-Dec-03 02:58N 59°20' E 018°05'0 0.0
2017-Dec-03 02:28N 59°20' E 018°05'0 0.0
2017-Dec-03 01:58N 59°20' E 018°05'0 0.0
2017-Dec-03 01:28N 59°20' E 018°05'0 0.0
2017-Dec-03 00:58N 59°20' E 018°05'0 0.0
2017-Dec-03 00:28N 59°20' E 018°05'0 0.0
2017-Dec-02 23:58N 59°20' E 018°05'0 0.0
2017-Dec-02 23:28N 59°20' E 018°05'0 0.0
2017-Dec-02 22:58N 59°20' E 018°05'0 0.0
2017-Dec-02 22:28N 59°20' E 018°05'0 0.0
2017-Dec-02 21:58N 59°20' E 018°05'0 0.0
2017-Dec-02 21:28N 59°20' E 018°05'0 0.0
2017-Dec-02 20:55N 59°20' E 018°05'0 0.0
2017-Dec-02 20:28N 59°20' E 018°05'0 0.0
2017-Dec-02 19:58N 59°20' E 018°05'0 0.0
2017-Dec-02 19:28N 59°20' E 018°05'0 0.0
2017-Dec-02 18:58N 59°20' E 018°05'0 0.0
2017-Dec-02 18:28N 59°20' E 018°05'0 0.0
2017-Dec-02 17:58N 59°20' E 018°05'0 0.0
2017-Dec-02 17:30N 59°20' E 018°05'2 3.1
2017-Dec-02 17:00N 59°19' E 018°07'2 3.2
2017-Dec-02 16:26N 59°21' E 018°09'2 3.7
2017-Dec-02 16:00N 59°19' E 018°08'2 4.0
2017-Dec-02 15:30N 59°20' E 018°05'2 3.9
2017-Dec-02 15:00N 59°19' E 018°08'2 3.8
2017-Dec-02 14:28N 59°20' E 018°05'2 3.4
2017-Dec-02 14:00N 59°19' E 018°07'2 3.4
2017-Dec-02 13:30N 59°21' E 018°09'2 3.5
2017-Dec-02 13:00N 59°19' E 018°08'2 3.5
2017-Dec-02 12:30N 59°20' E 018°05'0 0.0
2017-Dec-02 11:58N 59°20' E 018°05'2 3.8
2017-Dec-02 11:30N 59°19' E 018°07'1 2.3
2017-Dec-02 11:00N 59°20' E 018°05'1 2.4
2017-Dec-02 10:30N 59°19' E 018°08'2 3.1
2017-Dec-02 09:59N 59°21' E 018°09'2 3.3
2017-Dec-02 09:30N 59°19' E 018°08'2 4.0
2017-Dec-02 09:00N 59°20' E 018°05'0 0.5
2017-Dec-02 08:30N 59°20' E 018°05'0 0.0
2017-Dec-02 08:00N 59°20' E 018°05'0 0.0
2017-Dec-02 07:30N 59°20' E 018°05'0 0.0
2017-Dec-02 07:00N 59°20' E 018°05'0 0.0
2017-Dec-02 06:27N 59°20' E 018°05'0 0.0
2017-Dec-02 05:57N 59°20' E 018°05'0 0.0
2017-Dec-02 05:30N 59°20' E 018°05'0 0.0
2017-Dec-02 04:57N 59°20' E 018°05'0 0.0
2017-Dec-02 04:27N 59°20' E 018°05'0 0.0
2017-Dec-02 03:57N 59°20' E 018°05'0 0.0
2017-Dec-02 03:27N 59°20' E 018°05'0 0.0
2017-Dec-02 02:57N 59°20' E 018°05'0 0.0
2017-Dec-02 02:27N 59°20' E 018°05'0 0.0
2017-Dec-02 01:57N 59°20' E 018°05'0 0.0
2017-Dec-02 01:27N 59°20' E 018°05'0 0.0
2017-Dec-02 01:00N 59°20' E 018°05'0 0.0
2017-Dec-02 00:30N 59°20' E 018°05'0 0.0
2017-Dec-01 23:57N 59°20' E 018°05'0 0.0
2017-Dec-01 23:27N 59°20' E 018°05'0 0.0
2017-Dec-01 22:57N 59°20' E 018°05'0 0.0
2017-Dec-01 22:27N 59°20' E 018°05'0 0.0
2017-Dec-01 22:00N 59°20' E 018°05'0 0.0
2017-Dec-01 21:27N 59°20' E 018°05'0 0.0
2017-Dec-01 20:57N 59°20' E 018°05'0 0.0
2017-Dec-01 20:27N 59°20' E 018°05'1 2.8
2017-Dec-01 20:00N 59°19' E 018°07'0 0.3
2017-Dec-01 19:30N 59°19' E 018°07'1 2.3
2017-Dec-01 19:00N 59°20' E 018°05'2 4.6
2017-Dec-01 18:30N 59°19' E 018°09'2 4.1
2017-Dec-01 18:00N 59°20' E 018°05'1 1.9
2017-Dec-01 17:30N 59°19' E 018°07'  
Track history (hours):
 
Tides and Currents Weather Stations Pressure Air Temp Water Temp Dewpoint Dewpoint Depression Visibility Wind Speed Wind Dir Waves Ship Positions

Gurli

Last reported at 2017-Dec-11 17:00 UTC. Time now 2017-Dec-14 17:06 UTC.
Position N 59°21' E 018°09'.

Length 21 m.

Type: Passenger vessel. MMSI: 265687640.

Date/timePositionNaut miles runAvg speedWind from/ knotsBaromVisibWave heightAir tempDewpointWater temp
2017-Dec-11 17:00N 59°21' E 018°09'2 3.5
2017-Dec-11 16:24N 59°19' E 018°06'1 1.2
2017-Dec-11 16:00N 59°19' E 018°07'2 3.7
2017-Dec-11 15:30N 59°20' E 018°09'1 1.4
2017-Dec-11 15:00N 59°19' E 018°10'2 3.9
2017-Dec-11 14:30N 59°19' E 018°06'0 0.4
2017-Dec-11 14:00N 59°19' E 018°06'2 3.8
2017-Dec-11 13:30N 59°20' E 018°09'0 0.8
2017-Dec-11 13:00N 59°20' E 018°09'2 4.0
2017-Dec-11 12:31N 59°19' E 018°06'0 0.7
2017-Dec-11 12:00N 59°19' E 018°06'2 3.9
2017-Dec-11 11:29N 59°19' E 018°10'1 2.2
2017-Dec-11 11:00N 59°20' E 018°09'2 4.1
2017-Dec-11 10:30N 59°19' E 018°06'0 0.5
2017-Dec-11 10:00N 59°19' E 018°07'2 3.9
2017-Dec-11 09:30N 59°20' E 018°09'1 2.5
2017-Dec-11 08:59N 59°19' E 018°10'3 5.5
2017-Dec-11 08:30N 59°20' E 018°05'2 3.9
2017-Dec-11 08:00N 59°19' E 018°08'2 3.3
2017-Dec-11 07:30N 59°21' E 018°08'2 3.3
2017-Dec-11 07:00N 59°19' E 018°08'2 3.6
2017-Dec-11 06:30N 59°20' E 018°05'2 4.3
2017-Dec-11 06:00N 59°19' E 018°09'2 4.5
2017-Dec-11 05:28N 59°20' E 018°05'0 0.2
2017-Dec-11 04:23N 59°20' E 018°05'0 0.0
2017-Dec-11 03:53N 59°20' E 018°05'0 0.0
2017-Dec-11 03:23N 59°20' E 018°05'0 0.0
2017-Dec-11 02:47N 59°20' E 018°05'0 0.0
2017-Dec-11 02:29N 59°20' E 018°05'0 0.0
2017-Dec-11 01:59N 59°20' E 018°05'0 0.0
2017-Dec-11 01:29N 59°20' E 018°05'0 0.0
2017-Dec-11 00:59N 59°20' E 018°05'0 0.0
2017-Dec-11 00:29N 59°20' E 018°05'0 0.0
2017-Dec-10 23:53N 59°20' E 018°05'0 0.0
2017-Dec-10 23:29N 59°20' E 018°05'0 0.0
2017-Dec-10 22:59N 59°20' E 018°05'0 0.0
2017-Dec-10 22:29N 59°20' E 018°05'0 0.0
2017-Dec-10 21:59N 59°20' E 018°05'0 0.0
2017-Dec-10 21:29N 59°20' E 018°05'0 0.0
2017-Dec-10 20:59N 59°20' E 018°05'0 0.0
2017-Dec-10 20:29N 59°20' E 018°05'0 0.0
2017-Dec-10 19:59N 59°20' E 018°05'0 0.0
2017-Dec-10 19:30N 59°20' E 018°05'2 3.1
2017-Dec-10 19:00N 59°19' E 018°07'2 3.4
2017-Dec-10 18:30N 59°20' E 018°05'2 3.2
2017-Dec-10 17:58N 59°19' E 018°07'2 3.6
2017-Dec-10 17:28N 59°21' E 018°09'2 3.5
2017-Dec-10 17:01N 59°19' E 018°08'2 3.0
2017-Dec-10 16:24N 59°20' E 018°05'2 4.3
2017-Dec-10 16:00N 59°19' E 018°07'2 3.6
2017-Dec-10 15:30N 59°21' E 018°09'2 3.7
2017-Dec-10 15:00N 59°19' E 018°07'2 3.3
2017-Dec-10 14:28N 59°20' E 018°05'2 4.0
2017-Dec-10 14:00N 59°19' E 018°08'1 3.0
2017-Dec-10 13:30N 59°20' E 018°09'2 3.4
2017-Dec-10 13:00N 59°19' E 018°07'1 2.8
2017-Dec-10 12:30N 59°20' E 018°05'0 0.2
2017-Dec-10 12:00N 59°20' E 018°05'2 3.1
2017-Dec-10 11:30N 59°19' E 018°08'2 3.3
2017-Dec-10 10:58N 59°21' E 018°09'2 3.5
2017-Dec-10 10:30N 59°19' E 018°08'2 3.8
2017-Dec-10 09:58N 59°20' E 018°05'2 3.7
2017-Dec-10 09:30N 59°19' E 018°08'2 3.3
2017-Dec-10 08:58N 59°21' E 018°09'2 3.6
2017-Dec-10 08:30N 59°19' E 018°08'2 2.8
2017-Dec-10 07:54N 59°20' E 018°05'0 0.0
2017-Dec-10 07:24N 59°20' E 018°05'0 0.0
2017-Dec-10 05:48N 59°20' E 018°05'0 0.0
2017-Dec-10 04:36N 59°20' E 018°05'0 0.0
2017-Dec-10 04:30N 59°20' E 018°05'0 0.0
2017-Dec-10 03:48N 59°20' E 018°05'0 0.0
2017-Dec-10 03:30N 59°20' E 018°05'0 0.0
2017-Dec-10 02:57N 59°20' E 018°05'0 0.0
2017-Dec-10 02:30N 59°20' E 018°05'0 0.0
2017-Dec-10 02:00N 59°20' E 018°05'0 0.0
2017-Dec-10 01:27N 59°20' E 018°05'0 0.0
2017-Dec-10 01:00N 59°20' E 018°05'0 0.0
2017-Dec-10 00:30N 59°20' E 018°05'0 0.0
2017-Dec-09 23:57N 59°20' E 018°05'0 0.0
2017-Dec-09 23:30N 59°20' E 018°05'0 0.0
2017-Dec-09 23:00N 59°20' E 018°05'0 0.0
2017-Dec-09 22:30N 59°20' E 018°05'0 0.0
2017-Dec-09 21:57N 59°20' E 018°05'0 0.0
2017-Dec-09 21:30N 59°20' E 018°05'0 0.0
2017-Dec-09 21:00N 59°20' E 018°05'0 0.0
2017-Dec-09 20:30N 59°20' E 018°05'0 0.0
2017-Dec-09 20:00N 59°20' E 018°05'0 0.0
2017-Dec-09 19:30N 59°20' E 018°05'0 0.0
2017-Dec-09 17:41N 59°20' E 018°05'0 1.5
2017-Dec-09 17:29N 59°20' E 018°05'2 4.1
2017-Dec-09 17:00N 59°19' E 018°09'1 2.7
2017-Dec-09 16:29N 59°21' E 018°09'2 3.2
2017-Dec-09 16:01N 59°19' E 018°08'2 4.0
2017-Dec-09 15:30N 59°20' E 018°05'2 4.0
2017-Dec-09 15:00N 59°19' E 018°08'2 4.0
2017-Dec-09 14:30N 59°20' E 018°05'2 3.4
2017-Dec-09 14:00N 59°19' E 018°08'2 3.4
2017-Dec-09 13:30N 59°21' E 018°09'2 3.6
2017-Dec-09 13:00N 59°19' E 018°07'2 3.3
2017-Dec-09 12:29N 59°20' E 018°05'0 0.0
2017-Dec-09 11:59N 59°20' E 018°05'2 3.7
2017-Dec-09 11:30N 59°19' E 018°07'1 2.5
2017-Dec-09 11:00N 59°20' E 018°05'1 2.2
2017-Dec-09 10:30N 59°19' E 018°07'2 3.3
2017-Dec-09 09:58N 59°21' E 018°09'2 3.4
2017-Dec-09 09:30N 59°19' E 018°08'2 3.7
2017-Dec-09 09:00N 59°20' E 018°05'0 0.0
2017-Dec-09 08:30N 59°20' E 018°05'0 0.0
2017-Dec-09 07:48N 59°20' E 018°05'0 0.0
2017-Dec-09 07:15N 59°20' E 018°05'0 0.0
2017-Dec-09 04:48N 59°20' E 018°05'0 0.0
2017-Dec-09 04:30N 59°20' E 018°05'0 0.0
2017-Dec-09 04:00N 59°20' E 018°05'0 0.0
2017-Dec-09 03:30N 59°20' E 018°05'0 0.0
2017-Dec-09 03:00N 59°20' E 018°05'0 0.0
2017-Dec-09 02:30N 59°20' E 018°05'0 0.0
2017-Dec-09 02:00N 59°20' E 018°05'0 0.0
2017-Dec-09 01:30N 59°20' E 018°05'0 0.0
2017-Dec-09 01:00N 59°20' E 018°05'0 0.0
2017-Dec-09 00:30N 59°20' E 018°05'0 0.0
2017-Dec-09 00:00N 59°20' E 018°05'0 0.0
2017-Dec-08 23:30N 59°20' E 018°05'0 0.0
2017-Dec-08 23:00N 59°20' E 018°05'0 0.0
2017-Dec-08 22:30N 59°20' E 018°05'0 0.0
2017-Dec-08 22:00N 59°20' E 018°05'0 0.0
2017-Dec-08 21:30N 59°20' E 018°05'0 0.0
2017-Dec-08 21:00N 59°20' E 018°05'0 0.0
2017-Dec-08 20:30N 59°20' E 018°05'1 2.5
2017-Dec-08 20:00N 59°19' E 018°07'0 0.0
2017-Dec-08 19:30N 59°19' E 018°07'1 2.9
2017-Dec-08 19:00N 59°20' E 018°05'3 5.0
2017-Dec-08 18:29N 59°19' E 018°09'2 4.1
2017-Dec-08 18:00N 59°19' E 018°06'1 2.0
2017-Dec-08 17:29N 59°19' E 018°07'2 3.6
2017-Dec-08 17:00N 59°21' E 018°09'1 2.9
2017-Dec-08 16:31N 59°19' E 018°09'2 4.1
2017-Dec-08 16:01N 59°20' E 018°05'1 1.7
2017-Dec-08 15:30N 59°19' E 018°06'2 3.6
2017-Dec-08 15:00N 59°20' E 018°09'1 2.0
2017-Dec-08 14:28N 59°19' E 018°10'2 4.6
2017-Dec-08 14:00N 59°20' E 018°05'0 0.7
2017-Dec-08 13:29N 59°20' E 018°05'  
2017-Dec-04 10:30N 59°19' E 018°09'1 2.9
2017-Dec-04 10:00N 59°21' E 018°09'2 3.6
2017-Dec-04 09:30N 59°19' E 018°07'2 3.3
2017-Dec-04 08:58N 59°20' E 018°05'2 3.7
2017-Dec-04 08:30N 59°19' E 018°07'2 3.6
2017-Dec-04 08:00N 59°21' E 018°08'2 3.4
2017-Dec-04 07:30N 59°19' E 018°09'2 4.9
2017-Dec-04 07:00N 59°20' E 018°05'3 5.4
2017-Dec-04 06:30N 59°19' E 018°10'2 3.0
2017-Dec-04 06:00N 59°21' E 018°09'2 3.3
2017-Dec-04 05:30N 59°19' E 018°08'2 3.7
2017-Dec-04 05:00N 59°20' E 018°05'0 0.4
2017-Dec-04 04:29N 59°20' E 018°05'0 0.0
2017-Dec-04 03:59N 59°20' E 018°05'0 0.0
2017-Dec-04 03:29N 59°20' E 018°05'0 0.0
2017-Dec-04 02:59N 59°20' E 018°05'0 0.0
2017-Dec-04 02:29N 59°20' E 018°05'0 0.0
2017-Dec-04 01:59N 59°20' E 018°05'0 0.0
2017-Dec-04 01:29N 59°20' E 018°05'0 0.0
2017-Dec-04 00:59N 59°20' E 018°05'0 0.0
2017-Dec-04 00:26N 59°20' E 018°05'0 0.0
2017-Dec-03 23:59N 59°20' E 018°05'0 0.0
2017-Dec-03 23:29N 59°20' E 018°05'0 0.0
2017-Dec-03 22:56N 59°20' E 018°05'0 0.0
2017-Dec-03 22:29N 59°20' E 018°05'0 0.0
2017-Dec-03 21:59N 59°20' E 018°05'0 0.0
2017-Dec-03 21:29N 59°20' E 018°05'0 0.0
2017-Dec-03 20:59N 59°20' E 018°05'0 0.0
2017-Dec-03 20:29N 59°20' E 018°05'0 0.0
2017-Dec-03 19:59N 59°20' E 018°05'0 0.0
2017-Dec-03 19:29N 59°20' E 018°05'0 0.0
2017-Dec-03 18:59N 59°20' E 018°05'0 0.0
2017-Dec-03 18:29N 59°20' E 018°05'0 0.0
2017-Dec-03 17:59N 59°20' E 018°05'0 0.0
2017-Dec-03 17:29N 59°20' E 018°05'1 3.1
2017-Dec-03 17:00N 59°19' E 018°07'2 3.5
2017-Dec-03 16:30N 59°21' E 018°09'2 3.1
2017-Dec-03 16:00N 59°19' E 018°08'2 3.9
2017-Dec-03 15:29N 59°20' E 018°05'2 4.2
2017-Dec-03 15:00N 59°19' E 018°08'2 3.8
2017-Dec-03 14:28N 59°20' E 018°05'2 3.6
2017-Dec-03 14:00N 59°19' E 018°07'2 3.2
2017-Dec-03 13:30N 59°21' E 018°09'2 3.1
2017-Dec-03 13:00N 59°19' E 018°08'2 3.6
2017-Dec-03 12:28N 59°20' E 018°05'0 0.0
2017-Dec-03 11:58N 59°20' E 018°05'2 3.6
2017-Dec-03 11:30N 59°19' E 018°07'1 2.4
2017-Dec-03 11:00N 59°20' E 018°05'1 2.0
2017-Dec-03 10:30N 59°19' E 018°07'2 3.4
2017-Dec-03 09:59N 59°21' E 018°09'2 3.3
2017-Dec-03 09:30N 59°19' E 018°08'2 3.9
2017-Dec-03 09:00N 59°20' E 018°05'0 0.3
2017-Dec-03 08:28N 59°20' E 018°05'0 0.0
2017-Dec-03 07:58N 59°20' E 018°05'0 0.0
2017-Dec-03 07:28N 59°20' E 018°05'0 0.0
2017-Dec-03 06:58N 59°20' E 018°05'0 0.0
2017-Dec-03 06:28N 59°20' E 018°05'0 0.0
2017-Dec-03 05:58N 59°20' E 018°05'0 0.0
2017-Dec-03 05:28N 59°20' E 018°05'0 0.0
2017-Dec-03 04:58N 59°20' E 018°05'0 0.0
2017-Dec-03 04:28N 59°20' E 018°05'0 0.0
2017-Dec-03 03:58N 59°20' E 018°05'0 0.0
2017-Dec-03 03:25N 59°20' E 018°05'0 0.0
2017-Dec-03 02:58N 59°20' E 018°05'0 0.0
2017-Dec-03 02:28N 59°20' E 018°05'0 0.0
2017-Dec-03 01:58N 59°20' E 018°05'0 0.0
2017-Dec-03 01:28N 59°20' E 018°05'0 0.0
2017-Dec-03 00:58N 59°20' E 018°05'0 0.0
2017-Dec-03 00:28N 59°20' E 018°05'0 0.0
2017-Dec-02 23:58N 59°20' E 018°05'0 0.0
2017-Dec-02 23:28N 59°20' E 018°05'0 0.0
2017-Dec-02 22:58N 59°20' E 018°05'0 0.0
2017-Dec-02 22:28N 59°20' E 018°05'0 0.0
2017-Dec-02 21:58N 59°20' E 018°05'0 0.0
2017-Dec-02 21:28N 59°20' E 018°05'0 0.0
2017-Dec-02 20:55N 59°20' E 018°05'0 0.0
2017-Dec-02 20:28N 59°20' E 018°05'0 0.0
2017-Dec-02 19:58N 59°20' E 018°05'0 0.0
2017-Dec-02 19:28N 59°20' E 018°05'0 0.0
2017-Dec-02 18:58N 59°20' E 018°05'0 0.0
2017-Dec-02 18:28N 59°20' E 018°05'0 0.0
2017-Dec-02 17:58N 59°20' E 018°05'0 0.0
2017-Dec-02 17:30N 59°20' E 018°05'2 3.1
2017-Dec-02 17:00N 59°19' E 018°07'2 3.2
2017-Dec-02 16:26N 59°21' E 018°09'2 3.7
2017-Dec-02 16:00N 59°19' E 018°08'2 4.0
2017-Dec-02 15:30N 59°20' E 018°05'2 3.9
2017-Dec-02 15:00N 59°19' E 018°08'2 3.8
2017-Dec-02 14:28N 59°20' E 018°05'2 3.4
2017-Dec-02 14:00N 59°19' E 018°07'2 3.4
2017-Dec-02 13:30N 59°21' E 018°09'2 3.5
2017-Dec-02 13:00N 59°19' E 018°08'2 3.5
2017-Dec-02 12:30N 59°20' E 018°05'0 0.0
2017-Dec-02 11:58N 59°20' E 018°05'2 3.8
2017-Dec-02 11:30N 59°19' E 018°07'1 2.3
2017-Dec-02 11:00N 59°20' E 018°05'1 2.4
2017-Dec-02 10:30N 59°19' E 018°08'2 3.1
2017-Dec-02 09:59N 59°21' E 018°09'2 3.3
2017-Dec-02 09:30N 59°19' E 018°08'2 4.0
2017-Dec-02 09:00N 59°20' E 018°05'0 0.5
2017-Dec-02 08:30N 59°20' E 018°05'0 0.0
2017-Dec-02 08:00N 59°20' E 018°05'0 0.0
2017-Dec-02 07:30N 59°20' E 018°05'0 0.0
2017-Dec-02 07:00N 59°20' E 018°05'0 0.0
2017-Dec-02 06:27N 59°20' E 018°05'0 0.0
2017-Dec-02 05:57N 59°20' E 018°05'0 0.0
2017-Dec-02 05:30N 59°20' E 018°05'0 0.0
2017-Dec-02 04:57N 59°20' E 018°05'0 0.0
2017-Dec-02 04:27N 59°20' E 018°05'0 0.0
2017-Dec-02 03:57N 59°20' E 018°05'0 0.0
2017-Dec-02 03:27N 59°20' E 018°05'0 0.0
2017-Dec-02 02:57N 59°20' E 018°05'0 0.0
2017-Dec-02 02:27N 59°20' E 018°05'0 0.0
2017-Dec-02 01:57N 59°20' E 018°05'0 0.0
2017-Dec-02 01:27N 59°20' E 018°05'0 0.0
2017-Dec-02 01:00N 59°20' E 018°05'0 0.0
2017-Dec-02 00:30N 59°20' E 018°05'0 0.0
2017-Dec-01 23:57N 59°20' E 018°05'0 0.0
2017-Dec-01 23:27N 59°20' E 018°05'0 0.0
2017-Dec-01 22:57N 59°20' E 018°05'0 0.0
2017-Dec-01 22:27N 59°20' E 018°05'0 0.0
2017-Dec-01 22:00N 59°20' E 018°05'0 0.0
2017-Dec-01 21:27N 59°20' E 018°05'0 0.0
2017-Dec-01 20:57N 59°20' E 018°05'0 0.0
2017-Dec-01 20:27N 59°20' E 018°05'1 2.8
2017-Dec-01 20:00N 59°19' E 018°07'0 0.3
2017-Dec-01 19:30N 59°19' E 018°07'1 2.3
2017-Dec-01 19:00N 59°20' E 018°05'2 4.6
2017-Dec-01 18:30N 59°19' E 018°09'2 4.1
2017-Dec-01 18:00N 59°20' E 018°05'1 1.9
2017-Dec-01 17:30N 59°19' E 018°07'  

Dump ship's entire track history